createdAt,value
2019-02-25T00:01:17.998Z,87.36
2019-02-25T00:03:47.274Z,87.68
2019-02-25T00:06:16.640Z,87.48
2019-02-25T00:09:06.142Z,87.50
2019-02-25T00:11:35.563Z,87.67
2019-02-25T00:14:06.972Z,87.72
2019-02-25T00:16:36.528Z,88.01
2019-02-25T00:19:06.135Z,87.87
2019-02-25T00:21:54.569Z,88.09
2019-02-25T00:24:24.300Z,88.09
2019-02-25T00:26:53.743Z,88.26
2019-02-25T00:29:23.343Z,88.26
2019-02-25T00:32:06.688Z,88.66
2019-02-25T00:34:59.523Z,88.91
2019-02-25T00:37:29.343Z,89.62
2019-02-25T00:39:58.882Z,89.93
2019-02-25T00:42:28.384Z,90.04
2019-02-25T00:44:57.973Z,89.90
2019-02-25T00:47:53.125Z,90.16
2019-02-25T00:50:22.841Z,89.91
2019-02-25T00:52:52.362Z,89.86
2019-02-25T00:55:21.943Z,89.90
2019-02-25T00:57:51.708Z,89.92
2019-02-25T01:00:21.528Z,90.02
2019-02-25T01:03:15.777Z,90.27
2019-02-25T01:05:51.763Z,90.30
2019-02-25T01:08:21.375Z,90.32
2019-02-25T01:10:50.834Z,90.37
2019-02-25T01:16:10.296Z,90.67
2019-02-25T01:18:39.791Z,90.82
2019-02-25T01:21:09.222Z,91.09
2019-02-25T01:23:38.676Z,91.02
2019-02-25T01:26:08.072Z,91.06
2019-02-25T01:28:37.505Z,91.27
2019-02-25T01:31:06.961Z,91.32
2019-02-25T01:33:36.415Z,91.57
2019-02-25T01:36:05.844Z,91.92
2019-02-25T01:41:17.898Z,92.11
2019-02-25T01:43:58.344Z,91.94
2019-02-25T01:46:28.054Z,91.85
2019-02-25T01:48:58.994Z,91.85
2019-02-25T01:51:28.461Z,91.78
2019-02-25T01:53:58.031Z,91.74
2019-02-25T01:56:27.587Z,91.52
2019-02-25T01:58:58.674Z,91.57
2019-02-25T02:01:28.207Z,91.68
2019-02-25T02:03:57.801Z,92.28
2019-02-25T02:06:27.431Z,92.28
2019-02-25T02:08:57.313Z,92.20
2019-02-25T02:11:26.883Z,92.20
2019-02-25T02:13:56.491Z,92.33
2019-02-25T02:16:26.024Z,92.46
2019-02-25T02:18:55.686Z,92.72
2019-02-25T02:21:44.176Z,92.74
2019-02-25T02:24:27.845Z,92.74
2019-02-25T02:26:57.382Z,93.28
2019-02-25T02:29:26.966Z,93.52
2019-02-25T02:31:56.359Z,93.88
2019-02-25T02:34:26.076Z,93.79
2019-02-25T02:37:15.763Z,94.01
2019-02-25T02:39:45.294Z,94.18
2019-02-25T02:42:21.157Z,93.99
2019-02-25T02:45:14.309Z,93.82
2019-02-25T02:47:55.410Z,93.82
2019-02-25T02:50:30.658Z,93.11
2019-02-25T02:53:20.130Z,93.29
2019-02-25T02:56:01.027Z,93.29
2019-02-25T03:01:11.555Z,94.13
2019-02-25T03:03:40.982Z,94.00
2019-02-25T03:06:29.558Z,92.89
2019-02-25T03:08:59.021Z,92.89
2019-02-25T03:11:28.440Z,93.37
2019-02-25T03:14:17.079Z,94.20
2019-02-25T03:16:46.484Z,94.20
2019-02-25T03:19:16.462Z,94.83
2019-02-25T03:21:45.898Z,95.08
2019-02-25T03:24:15.611Z,95.32
2019-02-25T03:27:04.096Z,95.58
2019-02-25T03:29:33.586Z,95.58
2019-02-25T03:32:03.042Z,95.45
2019-02-25T03:34:32.453Z,95.13
2019-02-25T03:37:01.854Z,95.12
2019-02-25T03:39:31.294Z,95.52
2019-02-25T03:42:01.040Z,95.52
2019-02-25T03:44:30.534Z,95.16
2019-02-25T03:46:59.930Z,95.00
2019-02-25T03:49:29.444Z,94.99
2019-02-25T03:51:58.835Z,95.09
2019-02-25T03:54:28.262Z,94.77
2019-02-25T03:57:09.614Z,95.06
2019-02-25T03:59:50.498Z,94.98
2019-02-25T04:02:38.967Z,94.98
2019-02-25T04:05:27.429Z,94.53
2019-02-25T04:07:59.260Z,94.53
2019-02-25T04:10:50.003Z,94.68
2019-02-25T04:13:19.795Z,94.59
2019-02-25T04:15:49.358Z,94.59
2019-02-25T04:18:18.888Z,94.54
2019-02-25T04:20:48.664Z,94.39
2019-02-25T04:23:36.116Z,94.24
2019-02-25T04:26:05.653Z,94.56
2019-02-25T04:31:36.202Z,94.89
2019-02-25T04:34:27.362Z,95.47
2019-02-25T04:37:15.864Z,95.47
2019-02-25T04:39:56.664Z,95.61
2019-02-25T04:42:37.469Z,95.21
2019-02-25T04:45:10.780Z,95.21
2019-02-25T04:47:40.254Z,95.63
2019-02-25T04:50:11.826Z,95.62
2019-02-25T04:53:00.336Z,95.55
2019-02-25T04:55:33.751Z,95.55
2019-02-25T04:58:22.153Z,95.28
2019-02-25T05:01:10.628Z,94.84
2019-02-25T05:09:38.212Z,94.58
2019-02-25T05:12:20.263Z,94.58
2019-02-25T05:14:51.520Z,94.30
2019-02-25T05:17:21.131Z,94.13
2019-02-25T05:25:14.364Z,94.00
2019-02-25T05:27:43.878Z,93.91
2019-02-25T05:30:13.332Z,93.84
2019-02-25T05:32:42.723Z,93.86
2019-02-25T05:35:31.503Z,93.87
2019-02-25T05:38:00.960Z,93.79
2019-02-25T05:40:33.722Z,93.75
2019-02-25T05:43:03.183Z,93.52
2019-02-25T05:45:32.599Z,93.41
2019-02-25T05:48:02.009Z,93.38
2019-02-25T05:50:34.496Z,93.38
2019-02-25T05:53:03.884Z,93.36
2019-02-25T05:55:33.390Z,93.35
2019-02-25T05:58:02.797Z,93.31
2019-02-25T06:00:34.787Z,93.37
2019-02-25T06:03:04.264Z,93.25
2019-02-25T06:05:33.691Z,93.14
2019-02-25T06:08:03.087Z,93.09
2019-02-25T06:10:32.626Z,93.03
2019-02-25T06:13:13.409Z,92.89
2019-02-25T06:15:47.179Z,92.72
2019-02-25T06:18:16.689Z,92.61
2019-02-25T06:20:46.108Z,92.61
2019-02-25T06:23:34.437Z,92.53
2019-02-25T06:26:03.932Z,92.45
2019-02-25T06:31:24.893Z,92.46
2019-02-25T06:39:18.631Z,92.84
2019-02-25T06:41:48.101Z,93.00
2019-02-25T06:44:17.543Z,92.95
2019-02-25T06:46:46.970Z,93.01
2019-02-25T06:49:16.529Z,92.96
2019-02-25T06:51:45.939Z,92.90
2019-02-25T06:54:15.324Z,92.63
2019-02-25T06:56:44.761Z,92.39
2019-02-25T06:59:14.240Z,92.27
2019-02-25T07:01:43.673Z,92.06
2019-02-25T07:04:32.364Z,91.90
2019-02-25T07:07:20.662Z,91.73
2019-02-25T07:12:50.406Z,91.44
2019-02-25T07:15:37.377Z,91.32
2019-02-25T07:18:25.855Z,91.00
2019-02-25T07:21:02.151Z,90.86
2019-02-25T07:23:50.802Z,90.78
2019-02-25T07:26:39.095Z,90.72
2019-02-25T07:29:30.099Z,90.56
2019-02-25T07:32:12.479Z,90.44
2019-02-25T07:35:00.801Z,90.31
2019-02-25T07:37:49.109Z,90.11
2019-02-25T07:40:43.693Z,90.14
2019-02-25T07:43:32.121Z,89.88
2019-02-25T07:46:31.861Z,89.49
2019-02-25T07:49:40.187Z,89.28
2019-02-25T07:52:20.378Z,88.75
2019-02-25T07:55:27.839Z,88.51
2019-02-25T07:58:08.859Z,88.51
2019-02-25T08:00:47.490Z,88.28
2019-02-25T08:03:36.001Z,87.98
2019-02-25T08:06:24.411Z,87.70
2019-02-25T08:09:05.141Z,87.37
2019-02-25T08:11:54.262Z,87.27
2019-02-25T08:14:42.747Z,87.17
2019-02-25T08:20:25.227Z,86.50
2019-02-25T08:23:27.965Z,86.50
2019-02-25T08:26:16.426Z,86.17
2019-02-25T08:29:04.752Z,85.59
2019-02-25T08:31:56.702Z,84.98
2019-02-25T08:34:45.385Z,84.58
2019-02-25T08:38:11.653Z,84.58
2019-02-25T08:44:22.319Z,84.52
2019-02-25T08:47:00.394Z,84.32
2019-02-25T08:49:33.229Z,83.97
2019-02-25T08:52:02.658Z,83.84
2019-02-25T08:54:32.133Z,83.67
2019-02-25T08:59:36.989Z,83.12
2019-02-25T09:02:06.539Z,82.23
2019-02-25T09:04:35.951Z,81.74
2019-02-25T09:07:24.332Z,81.70
2019-02-25T09:15:23.328Z,80.74
2019-02-25T09:18:04.147Z,80.37
2019-02-25T09:20:33.672Z,80.63
2019-02-25T09:23:21.977Z,80.83
2019-02-25T09:25:51.491Z,80.85
2019-02-25T09:28:21.081Z,80.07
2019-02-25T09:30:50.512Z,79.87
2019-02-25T09:33:20.121Z,80.09
2019-02-25T09:35:49.520Z,80.00
2019-02-25T09:38:19.027Z,80.13
2019-02-25T09:40:48.641Z,79.96
2019-02-25T09:43:18.042Z,79.26
2019-02-25T09:48:36.082Z,79.25
2019-02-25T09:51:05.542Z,79.05
2019-02-25T09:53:35.004Z,78.76
2019-02-25T09:56:04.458Z,78.82
2019-02-25T09:58:33.870Z,79.13
2019-02-25T10:01:03.262Z,79.00
2019-02-25T10:03:32.887Z,78.78
2019-02-25T10:06:02.277Z,78.22
2019-02-25T10:08:31.708Z,78.03
2019-02-25T10:11:01.142Z,77.62
2019-02-25T10:13:30.551Z,77.58
2019-02-25T10:15:59.924Z,76.92
2019-02-25T10:18:29.868Z,76.35
2019-02-25T10:23:42.928Z,76.08
2019-02-25T10:26:12.496Z,75.32
2019-02-25T10:28:41.972Z,74.81
2019-02-25T10:31:13.086Z,73.28
2019-02-25T10:33:42.889Z,73.12
2019-02-25T10:36:12.353Z,72.78
2019-02-25T10:38:41.729Z,71.88
2019-02-25T10:41:11.457Z,71.91
2019-02-25T10:43:40.904Z,71.81
2019-02-25T10:46:12.925Z,71.05
2019-02-25T10:48:41.548Z,70.71
2019-02-25T10:51:12.001Z,71.79
2019-02-25T10:53:43.169Z,72.06
2019-02-25T10:58:57.629Z,71.83
2019-02-25T11:01:27.650Z,71.78
2019-02-25T11:03:57.391Z,70.75
2019-02-25T11:06:28.985Z,71.73
2019-02-25T11:09:18.118Z,71.97
2019-02-25T11:14:38.453Z,71.51
2019-02-25T11:17:09.614Z,68.27
2019-02-25T11:19:39.190Z,68.29
2019-02-25T11:22:10.403Z,68.50
2019-02-25T11:24:40.648Z,69.16
2019-02-25T11:27:10.340Z,68.73
2019-02-25T11:29:40.529Z,68.21
2019-02-25T11:32:11.280Z,68.48
2019-02-25T11:34:52.839Z,67.10
2019-02-25T11:37:24.763Z,66.68
2019-02-25T11:39:55.314Z,67.05
2019-02-25T11:42:26.053Z,66.46
2019-02-25T11:45:14.588Z,65.95
2019-02-25T11:47:43.999Z,66.64
2019-02-25T11:50:14.509Z,65.93
2019-02-25T11:52:43.989Z,65.75
2019-02-25T11:55:13.576Z,64.09
2019-02-25T11:58:03.419Z,64.22
2019-02-25T12:00:51.899Z,63.37
2019-02-25T12:03:21.450Z,63.25
2019-02-25T12:05:53.350Z,63.83
2019-02-25T12:08:41.636Z,63.96
2019-02-25T12:11:11.113Z,64.13
2019-02-25T12:16:28.889Z,63.11
2019-02-25T12:18:58.387Z,62.60
2019-02-25T12:21:27.910Z,62.39
2019-02-25T12:23:57.392Z,62.91
2019-02-25T12:26:27.163Z,62.54
2019-02-25T12:28:56.723Z,63.15
2019-02-25T12:34:02.721Z,62.63
2019-02-25T12:36:34.551Z,62.10
2019-02-25T12:39:04.423Z,62.49
2019-02-25T12:41:33.991Z,62.27
2019-02-25T12:44:03.706Z,62.70
2019-02-25T12:46:33.138Z,62.41
2019-02-25T12:49:03.046Z,62.81
2019-02-25T12:51:32.477Z,62.20
2019-02-25T12:54:23.903Z,61.38
2019-02-25T12:56:53.410Z,61.89
2019-02-25T13:02:11.278Z,60.60
2019-02-25T13:10:07.030Z,61.01
2019-02-25T13:12:36.608Z,61.20
2019-02-25T13:15:13.358Z,61.71
2019-02-25T13:17:40.216Z,61.05
2019-02-25T13:20:09.885Z,60.25
2019-02-25T13:22:39.390Z,60.54
2019-02-25T13:28:08.204Z,60.73
2019-02-25T13:30:39.379Z,61.04
2019-02-25T13:33:08.852Z,61.40
2019-02-25T13:35:38.257Z,61.46
2019-02-25T13:38:08.270Z,61.12
2019-02-25T13:40:37.707Z,61.64
2019-02-25T13:43:07.129Z,61.71
2019-02-25T13:45:36.647Z,62.57
2019-02-25T13:48:07.505Z,62.21
2019-02-25T13:50:36.988Z,62.28
2019-02-25T13:53:06.533Z,62.41
2019-02-25T13:55:35.957Z,62.14
2019-02-25T13:58:05.650Z,61.78
2019-02-25T14:00:35.274Z,62.42
2019-02-25T14:03:05.042Z,61.87
2019-02-25T14:05:34.525Z,61.97
2019-02-25T14:08:04.533Z,62.44
2019-02-25T14:10:33.928Z,62.82
2019-02-25T14:13:03.508Z,63.28
2019-02-25T14:15:33.111Z,62.96
2019-02-25T14:18:02.666Z,63.16
2019-02-25T14:20:32.182Z,63.57
2019-02-25T14:23:01.705Z,64.10
2019-02-25T14:25:31.102Z,64.04
2019-02-25T14:28:09.129Z,64.37
2019-02-25T14:30:59.141Z,64.25
2019-02-25T14:33:28.878Z,64.30
2019-02-25T14:35:58.530Z,64.27
2019-02-25T14:38:29.996Z,64.37
2019-02-25T14:43:41.757Z,64.35
2019-02-25T14:46:07.770Z,64.66
2019-02-25T14:48:37.816Z,64.46
2019-02-25T14:51:08.793Z,64.66
2019-02-25T14:53:38.498Z,65.10
2019-02-25T14:56:07.880Z,65.61
2019-02-25T14:58:37.861Z,65.99
2019-02-25T15:01:08.207Z,66.34
2019-02-25T15:03:37.721Z,66.48
2019-02-25T15:08:57.500Z,66.93
2019-02-25T15:14:23.048Z,66.62
2019-02-25T15:16:52.556Z,66.36
2019-02-25T15:19:22.238Z,66.34
2019-02-25T15:21:54.331Z,65.97
2019-02-25T15:27:19.569Z,65.18
2019-02-25T15:29:49.749Z,65.06
2019-02-25T15:37:46.681Z,63.87
2019-02-25T15:40:18.585Z,63.81
2019-02-25T15:43:00.582Z,63.79
2019-02-25T15:45:50.646Z,63.90
2019-02-25T15:48:43.419Z,63.89
2019-02-25T15:51:12.845Z,63.68
2019-02-25T15:53:46.183Z,64.04
2019-02-25T15:56:14.116Z,64.09
2019-02-25T15:58:43.609Z,64.28
2019-02-25T16:01:13.109Z,64.49
2019-02-25T16:03:43.089Z,64.49
2019-02-25T16:06:12.692Z,64.91
2019-02-25T16:08:42.093Z,65.61
2019-02-25T16:11:16.326Z,66.20
2019-02-25T16:13:46.142Z,66.72
2019-02-25T16:16:15.716Z,67.06
2019-02-25T16:18:45.075Z,67.28
2019-02-25T16:21:14.581Z,67.52
2019-02-25T16:23:45.359Z,67.58
2019-02-25T16:26:16.063Z,67.75
2019-02-25T16:28:46.498Z,67.81
2019-02-25T16:31:15.933Z,67.70
2019-02-25T16:33:46.996Z,67.82
2019-02-25T16:36:16.696Z,67.80
2019-02-25T16:38:46.066Z,67.84
2019-02-25T16:41:16.108Z,67.73
2019-02-25T16:43:45.628Z,67.74
2019-02-25T16:46:16.204Z,67.69
2019-02-25T16:48:48.273Z,67.64
2019-02-25T16:51:17.891Z,67.85
2019-02-25T16:53:50.520Z,68.07
2019-02-25T16:56:20.336Z,68.32
2019-02-25T16:58:52.637Z,68.67
2019-02-25T17:01:25.908Z,69.00
2019-02-25T17:03:53.871Z,69.18
2019-02-25T17:06:23.327Z,69.35
2019-02-25T17:11:28.491Z,69.36
2019-02-25T17:14:09.083Z,69.19
2019-02-25T17:19:22.129Z,68.84
2019-02-25T17:21:51.938Z,68.82
2019-02-25T17:24:23.933Z,68.75
2019-02-25T17:26:52.565Z,68.61
2019-02-25T17:29:23.124Z,68.43
2019-02-25T17:31:54.775Z,68.40
2019-02-25T17:34:43.802Z,68.39
2019-02-25T17:37:14.839Z,68.41
2019-02-25T17:39:44.479Z,68.28
2019-02-25T17:42:14.035Z,68.33
2019-02-25T17:44:43.765Z,68.42
2019-02-25T17:47:21.583Z,68.50
2019-02-25T17:52:20.789Z,67.97
2019-02-25T17:54:51.392Z,67.76
2019-02-25T17:57:22.548Z,67.48
2019-02-25T17:59:52.825Z,67.11
2019-02-25T18:02:23.348Z,67.15
2019-02-25T18:04:53.263Z,67.09
2019-02-25T18:07:23.995Z,67.11
2019-02-25T18:09:53.684Z,67.07
2019-02-25T18:12:25.438Z,67.00
2019-02-25T18:15:07.344Z,67.01
2019-02-25T18:17:38.913Z,67.28
2019-02-25T18:20:09.578Z,67.50
2019-02-25T18:22:40.690Z,67.76
2019-02-25T18:25:10.423Z,67.76
2019-02-25T18:27:41.376Z,67.79
2019-02-25T18:30:12.300Z,67.56
2019-02-25T18:32:42.021Z,67.30
2019-02-25T18:35:12.256Z,67.42
2019-02-25T18:37:43.529Z,66.98
2019-02-25T18:40:16.366Z,66.58
2019-02-25T18:42:45.916Z,66.59
2019-02-25T18:45:18.522Z,66.43
2019-02-25T18:47:49.265Z,66.40
2019-02-25T18:55:59.742Z,66.76
2019-02-25T18:58:31.037Z,66.98
2019-02-25T19:01:01.049Z,67.12
2019-02-25T19:03:31.215Z,67.33
2019-02-25T19:06:03.827Z,67.52
2019-02-25T19:08:33.421Z,67.81
2019-02-25T19:11:02.863Z,68.07
2019-02-25T19:13:32.329Z,68.29
2019-02-25T19:16:04.121Z,68.48
2019-02-25T19:18:34.431Z,68.68
2019-02-25T19:21:06.138Z,68.88
2019-02-25T19:23:37.726Z,69.05
2019-02-25T19:26:08.117Z,69.11
2019-02-25T19:28:38.404Z,69.15
2019-02-25T19:31:08.816Z,69.19
2019-02-25T19:33:38.574Z,69.27
2019-02-25T19:36:09.769Z,69.24
2019-02-25T19:38:41.899Z,69.19
2019-02-25T19:41:17.643Z,69.22
2019-02-25T19:44:01.618Z,69.22
2019-02-25T19:46:30.079Z,69.15
2019-02-25T19:48:59.628Z,69.12
2019-02-25T19:51:38.115Z,69.00
2019-02-25T19:54:09.831Z,68.96
2019-02-25T19:56:39.017Z,68.86
2019-02-25T19:59:08.728Z,68.81
2019-02-25T20:01:39.392Z,68.69
2019-02-25T20:07:02.260Z,68.12
2019-02-25T20:09:32.277Z,67.91
2019-02-25T20:12:01.983Z,67.69
2019-02-25T20:14:31.907Z,67.51
2019-02-25T20:17:02.670Z,67.42
2019-02-25T20:19:33.750Z,67.28
2019-02-25T20:22:03.145Z,67.26
2019-02-25T20:24:35.123Z,67.14
2019-02-25T20:27:06.719Z,67.01
2019-02-25T20:29:36.551Z,66.91
2019-02-25T20:32:07.228Z,66.87
2019-02-25T20:34:36.714Z,66.92
2019-02-25T20:37:06.088Z,66.87
2019-02-25T20:39:35.904Z,66.87
2019-02-25T20:45:11.696Z,66.94
2019-02-25T20:47:41.083Z,66.97
2019-02-25T20:50:14.741Z,67.05
2019-02-25T20:52:44.679Z,67.16
2019-02-25T20:57:50.583Z,67.31
2019-02-25T21:00:20.379Z,67.36
2019-02-25T21:02:50.093Z,67.45
2019-02-25T21:05:22.149Z,67.71
2019-02-25T21:07:52.816Z,67.75
2019-02-25T21:10:23.163Z,67.81
2019-02-25T21:13:05.670Z,67.94
2019-02-25T21:15:36.378Z,67.99
2019-02-25T21:18:28.830Z,68.06
2019-02-25T21:20:59.939Z,68.19
2019-02-25T21:23:29.444Z,68.27
2019-02-25T21:26:04.296Z,68.28
2019-02-25T21:28:33.714Z,68.33
2019-02-25T21:31:07.132Z,68.40
2019-02-25T21:33:34.416Z,68.46
2019-02-25T21:36:03.811Z,68.60
2019-02-25T21:38:33.250Z,68.69
2019-02-25T21:41:02.653Z,68.73
2019-02-25T21:43:32.058Z,68.76
2019-02-25T21:46:01.794Z,68.89
2019-02-25T21:48:32.297Z,68.94
2019-02-25T21:51:04.749Z,69.01
2019-02-25T21:53:33.684Z,69.09
2019-02-25T21:56:04.859Z,69.20
2019-02-25T21:58:34.271Z,69.32
2019-02-25T22:01:03.677Z,69.38
2019-02-25T22:03:36.948Z,69.34
2019-02-25T22:06:04.938Z,69.28
2019-02-25T22:08:36.263Z,69.25
2019-02-25T22:11:12.196Z,69.35
2019-02-25T22:13:49.176Z,69.37
2019-02-25T22:16:21.859Z,69.49
2019-02-25T22:18:54.196Z,69.58
2019-02-25T22:21:23.659Z,69.73
2019-02-25T22:23:56.152Z,69.78
2019-02-25T22:26:28.459Z,69.82
2019-02-25T22:28:57.968Z,69.80
2019-02-25T22:31:27.405Z,69.84
2019-02-25T22:33:59.782Z,69.84
2019-02-25T22:36:29.261Z,69.92
2019-02-25T22:39:01.879Z,69.94
2019-02-25T22:41:50.939Z,69.92
2019-02-25T22:44:22.048Z,69.95
2019-02-25T22:46:56.423Z,69.96
2019-02-25T22:49:24.624Z,69.98
2019-02-25T22:51:58.103Z,69.92
2019-02-25T22:57:02.225Z,70.17
2019-02-25T22:59:34.988Z,70.35
2019-02-25T23:02:02.916Z,70.45
2019-02-25T23:04:32.350Z,70.56
2019-02-25T23:07:01.783Z,70.65
2019-02-25T23:09:52.130Z,70.69
2019-02-25T23:12:22.377Z,70.76
2019-02-25T23:15:00.976Z,70.79
2019-02-25T23:17:33.073Z,70.74
2019-02-25T23:20:02.772Z,70.73
2019-02-25T23:22:34.500Z,70.76
2019-02-25T23:25:03.982Z,70.68
2019-02-25T23:27:34.496Z,70.71
2019-02-25T23:32:47.485Z,70.69
2019-02-25T23:35:18.381Z,70.69
2019-02-25T23:37:49.617Z,70.68
2019-02-25T23:40:19.415Z,70.70
2019-02-25T23:43:09.568Z,70.72
2019-02-25T23:46:02.181Z,70.76
2019-02-25T23:48:33.726Z,70.75
2019-02-25T23:51:02.556Z,70.80
2019-02-25T23:53:32.933Z,70.81
2019-02-25T23:56:03.163Z,70.76
2019-02-25T23:58:32.575Z,70.71
